Time;durP1;ratioP1;P1;durP2;ratioP2;P2;SDS_P1;SDS_P2;PMS_P1;PMS_P2;Temp;Humidity;BMP_temperature;BMP_pressure;BME280_temperature;BME280_humidity;BME280_pressure;Samples;Min_cycle;Max_cycle;Signal;HPM_P1;HPM_P2
2022/10/09 00:01:23;;;;;;;11.73;7.43;;;;;;;11.81;60.56;95851.06;4988615;28;20066;-79
2022/10/09 00:03:49;;;;;;;10.68;7.30;;;;;;;11.79;59.60;95844.19;4954290;28;20469;-79
2022/10/09 00:06:20;;;;;;;10.88;6.93;;;;;;;11.73;59.28;95843.03;4955316;28;20037;-79
2022/10/09 00:08:45;;;;;;;13.45;7.22;;;;;;;11.65;59.50;95848.44;4954376;28;20553;-79
2022/10/09 00:11:15;;;;;;;9.63;6.70;;;;;;;11.58;59.44;95845.59;4971017;28;20061;-79
2022/10/09 00:13:41;;;;;;;9.32;7.05;;;;;;;11.48;60.57;95838.59;4939034;28;20062;-79
2022/10/09 00:16:08;;;;;;;11.27;6.65;;;;;;;11.44;61.33;95837.25;4970370;28;20034;-80
2022/10/09 00:18:34;;;;;;;11.13;7.05;;;;;;;11.43;61.25;95835.56;4954831;28;20554;-80
2022/10/09 00:20:59;;;;;;;12.48;7.70;;;;;;;11.39;61.40;95847.69;4969868;28;20058;-80
2022/10/09 00:23:25;;;;;;;10.52;6.78;;;;;;;11.37;61.82;95837.09;4970517;28;20046;-79
2022/10/09 00:25:58;;;;;;;11.13;7.57;;;;;;;11.32;62.10;95831.41;4969615;28;20045;-78
2022/10/09 00:28:24;;;;;;;15.15;7.38;;;;;;;11.33;61.47;95838.44;4954865;28;20200;-79
2022/10/09 00:30:50;;;;;;;9.80;6.82;;;;;;;11.30;61.88;95835.28;4969980;28;20517;-79
2022/10/09 00:33:16;;;;;;;11.45;6.95;;;;;;;11.34;61.95;95825.88;4970111;28;20069;-79
2022/10/09 00:35:41;;;;;;;10.48;6.45;;;;;;;11.31;61.90;95827.06;4938019;28;20464;-79
2022/10/09 00:38:07;;;;;;;12.00;6.75;;;;;;;11.32;62.03;95827.88;4969661;28;20030;-79
2022/10/09 00:40:33;;;;;;;10.13;6.82;;;;;;;11.30;62.09;95822.69;4970198;28;20064;-80
2022/10/09 00:42:58;;;;;;;9.20;6.60;;;;;;;11.27;62.24;95816.84;4987281;28;20105;-79
2022/10/09 00:45:24;;;;;;;14.70;7.07;;;;;;;11.26;62.15;95816.00;4954597;28;20441;-79
2022/10/09 00:47:52;;;;;;;10.07;6.25;;;;;;;11.24;62.10;95816.16;4986580;28;20030;-79
2022/10/09 00:50:23;;;;;;;13.93;6.93;;;;;;;11.27;62.42;95819.53;4954220;28;20037;-79
2022/10/09 00:52:51;;;;;;;9.77;6.90;;;;;;;11.26;62.27;95813.31;4987355;28;20038;-79
2022/10/09 00:55:16;;;;;;;10.23;7.65;;;;;;;11.27;62.51;95814.16;4969885;28;20030;-80
2022/10/09 00:57:41;;;;;;;11.02;6.30;;;;;;;11.30;62.13;95814.63;4970161;28;20033;-79
2022/10/09 01:00:09;;;;;;;11.60;6.82;;;;;;;11.29;61.94;95809.44;4986945;28;20030;-79
2022/10/09 01:02:34;;;;;;;13.38;6.43;;;;;;;11.23;62.17;95809.13;4954468;28;20081;-80
2022/10/09 01:05:00;;;;;;;10.60;6.63;;;;;;;11.19;62.34;95807.78;4987028;28;20022;-80
2022/10/09 01:07:27;;;;;;;8.77;6.70;;;;;;;11.15;62.11;95811.81;4970172;28;20564;-79
2022/10/09 01:10:09;;;;;;;10.63;7.20;;;;;;;11.12;62.13;95817.53;4969714;28;20018;-80
2022/10/09 01:12:52;;;;;;;11.00;6.90;;;;;;;11.11;62.46;95816.69;4969494;28;20019;-80
2022/10/09 01:15:18;;;;;;;12.45;7.28;;;;;;;11.13;62.98;95800.41;4987556;28;20037;-80
2022/10/09 01:18:06;;;;;;;9.68;7.03;;;;;;;11.10;63.06;95814.19;4969258;28;20034;-80
2022/10/09 01:20:44;;;;;;;9.07;6.82;;;;;;;11.14;63.19;95807.44;4956173;28;20116;-80
2022/10/09 01:23:51;;;;;;;10.27;6.78;;;;;;;11.20;63.34;95806.78;4987100;28;20041;-79
2022/10/09 01:26:23;;;;;;;10.15;7.07;;;;;;;11.20;63.23;95812.16;4956090;28;20527;-79
2022/10/09 01:28:57;;;;;;;12.47;7.27;;;;;;;11.22;63.33;95814.66;4970362;28;20456;-79
2022/10/09 01:31:22;;;;;;;10.75;6.97;;;;;;;11.23;63.18;95806.44;4937274;28;20026;-79
2022/10/09 01:33:48;;;;;;;10.13;7.25;;;;;;;11.22;63.28;95811.97;4987097;28;20413;-79
2022/10/09 01:36:14;;;;;;;9.32;6.63;;;;;;;11.19;63.33;95814.97;4969370;28;20094;-78
2022/10/09 01:38:39;;;;;;;10.18;6.80;;;;;;;11.16;63.38;95812.63;4953079;28;20059;-79
2022/10/09 01:41:04;;;;;;;10.88;7.57;;;;;;;11.14;63.26;95804.75;4953616;28;20438;-78
2022/10/09 01:43:30;;;;;;;10.55;7.05;;;;;;;11.10;63.22;95801.59;4952991;28;20418;-80
2022/10/09 01:46:20;;;;;;;10.90;6.68;;;;;;;11.11;63.26;95813.16;4987479;28;20433;-79
2022/10/09 01:49:11;;;;;;;9.73;6.78;;;;;;;11.12;63.22;95813.00;4986448;28;20066;-79
2022/10/09 01:52:04;;;;;;;10.25;7.32;;;;;;;11.11;62.90;95815.84;4962070;28;20624;-79
2022/10/09 01:54:49;;;;;;;9.85;6.93;;;;;;;11.04;62.88;95818.41;4959843;28;20130;-79
2022/10/09 01:57:16;;;;;;;10.40;7.90;;;;;;;11.02;63.30;95814.19;4973053;28;20105;-79
2022/10/09 01:59:41;;;;;;;15.45;8.35;;;;;;;10.95;63.29;95817.56;4957678;28;20069;-79
2022/10/09 02:02:07;;;;;;;15.93;7.75;;;;;;;10.93;62.90;95818.75;4957012;28;20030;-79
2022/10/09 02:04:33;;;;;;;11.38;7.15;;;;;;;10.92;62.94;95814.38;4957064;28;20039;-79
2022/10/09 02:06:58;;;;;;;11.35;7.75;;;;;;;10.92;64.45;95817.91;4973515;28;20030;-81
2022/10/09 02:09:24;;;;;;;10.43;7.85;;;;;;;10.91;63.58;95820.75;4956118;28;20034;-80
2022/10/09 02:11:52;;;;;;;13.93;7.80;;;;;;;10.84;64.16;95820.59;4990967;28;20029;-79
2022/10/09 02:14:17;;;;;;;12.48;8.73;;;;;;;10.88;64.09;95821.94;4956396;28;20029;-79
2022/10/09 02:16:46;;;;;;;13.13;8.63;;;;;;;10.85;64.45;95825.78;4973487;28;20441;-80
2022/10/09 02:19:24;;;;;;;13.35;8.00;;;;;;;10.90;64.29;95827.94;4956767;28;20026;-79
2022/10/09 02:21:51;;;;;;;11.00;7.88;;;;;;;10.94;63.42;95837.34;4972805;28;20480;-80
2022/10/09 02:24:18;;;;;;;12.77;7.90;;;;;;;10.93;63.17;95830.28;4972742;28;20018;-80
2022/10/09 02:26:43;;;;;;;9.38;6.93;;;;;;;10.91;61.19;95840.38;4940670;28;20482;-80
2022/10/09 02:29:09;;;;;;;8.40;6.18;;;;;;;10.88;60.60;95833.50;4973165;28;20054;-80
2022/10/09 02:31:36;;;;;;;8.70;6.57;;;;;;;10.85;60.97;95839.19;4972255;28;20034;-80
2022/10/09 02:34:03;;;;;;;8.43;6.93;;;;;;;10.81;61.69;95835.19;4957229;28;20034;-80
2022/10/09 02:36:29;;;;;;;11.85;6.43;;;;;;;10.76;61.79;95837.53;4956513;28;20037;-80
2022/10/09 02:38:55;;;;;;;10.75;6.82;;;;;;;10.74;62.01;95842.22;4956797;28;20413;-79
2022/10/09 02:41:21;;;;;;;8.68;6.22;;;;;;;10.71;61.83;95835.34;4956565;28;20022;-79
2022/10/09 02:43:46;;;;;;;7.95;5.88;;;;;;;10.72;62.03;95837.03;4990079;28;20031;-80
2022/10/09 02:46:12;;;;;;;8.88;6.90;;;;;;;10.71;61.88;95839.88;4972730;28;20023;-80
2022/10/09 02:48:37;;;;;;;7.38;5.55;;;;;;;10.65;62.28;95836.03;4989128;28;20460;-80
2022/10/09 02:51:03;;;;;;;10.18;6.07;;;;;;;10.59;62.75;95842.06;4990209;28;20038;-80
2022/10/09 02:53:28;;;;;;;7.72;6.00;;;;;;;10.60;62.55;95841.06;4971763;28;20026;-80
2022/10/09 02:55:53;;;;;;;9.75;6.20;;;;;;;10.59;62.93;95834.84;4973028;28;20034;-80
2022/10/09 02:58:19;;;;;;;9.20;5.97;;;;;;;10.62;62.85;95841.72;4956085;28;20409;-80
2022/10/09 03:00:51;;;;;;;9.18;6.28;;;;;;;10.63;62.59;95843.41;4971844;28;20042;-80
2022/10/09 03:03:17;;;;;;;9.38;5.75;;;;;;;10.61;62.92;95840.88;4971589;28;20062;-79
2022/10/09 03:05:42;;;;;;;9.98;6.13;;;;;;;10.62;63.21;95839.03;4955443;28;20146;-79
2022/10/09 03:08:08;;;;;;;8.68;6.05;;;;;;;10.64;63.15;95847.75;4972364;28;20109;-80
2022/10/09 03:10:36;;;;;;;9.35;6.18;;;;;;;10.66;62.86;95852.94;4971435;28;20457;-79
2022/10/09 03:13:01;;;;;;;8.85;6.03;;;;;;;10.64;62.83;95850.44;4990303;28;20026;-80
2022/10/09 03:15:26;;;;;;;8.63;6.13;;;;;;;10.66;62.80;95848.41;4971412;28;20027;-79
2022/10/09 03:17:52;;;;;;;7.47;5.97;;;;;;;10.65;62.74;95851.28;4956599;28;20018;-79
2022/10/09 03:20:17;;;;;;;8.48;6.15;;;;;;;10.65;62.90;95848.59;4971644;28;20034;-79
2022/10/09 03:22:43;;;;;;;10.32;6.22;;;;;;;10.62;62.82;95858.63;4971685;28;20026;-80
2022/10/09 03:25:08;;;;;;;10.38;6.68;;;;;;;10.65;63.41;95856.63;4971726;28;20477;-79
2022/10/09 03:27:34;;;;;;;10.93;6.65;;;;;;;10.62;63.71;95855.97;4971547;28;20417;-79
2022/10/09 03:29:59;;;;;;;12.70;6.75;;;;;;;10.67;63.63;95857.31;4971921;28;20018;-79
2022/10/09 03:32:25;;;;;;;13.27;6.35;;;;;;;10.65;62.74;95865.53;4989096;28;20027;-79
2022/10/09 03:34:50;;;;;;;12.27;6.85;;;;;;;10.56;62.67;95862.00;4971658;28;20034;-79
2022/10/09 03:37:15;;;;;;;9.57;6.93;;;;;;;10.49;62.87;95861.81;4955217;28;20425;-79
2022/10/09 03:39:41;;;;;;;9.90;7.35;;;;;;;10.46;63.54;95867.50;4971542;28;20417;-79
2022/10/09 03:42:06;;;;;;;10.05;6.82;;;;;;;10.47;63.81;95869.22;4971568;28;20038;-79
2022/10/09 03:44:32;;;;;;;8.85;6.45;;;;;;;10.44;63.41;95858.78;4989055;28;20030;-79
2022/10/09 03:46:57;;;;;;;10.75;6.13;;;;;;;10.49;63.70;95872.53;4989261;28;20034;-80
2022/10/09 03:49:23;;;;;;;7.95;6.60;;;;;;;10.50;63.61;95873.38;4988398;28;20093;-79
2022/10/09 03:51:48;;;;;;;9.30;6.18;;;;;;;10.50;63.44;95866.19;4971447;28;20025;-79
2022/10/09 03:54:14;;;;;;;8.73;6.75;;;;;;;10.48;63.35;95864.66;4988740;28;20382;-79
2022/10/09 03:56:39;;;;;;;11.95;6.63;;;;;;;10.51;62.76;95869.72;4971752;28;20026;-79
2022/10/09 03:59:06;;;;;;;10.15;6.30;;;;;;;10.49;63.09;95861.81;4970933;28;20030;-79
2022/10/09 04:01:32;;;;;;;8.57;6.00;;;;;;;10.49;63.28;95866.34;4971613;28;20033;-79
2022/10/09 04:03:57;;;;;;;8.93;6.90;;;;;;;10.47;63.38;95868.34;4955189;28;20433;-79
2022/10/09 04:06:22;;;;;;;8.73;6.55;;;;;;;10.41;62.08;95864.47;4988393;28;20037;-79
2022/10/09 04:08:48;;;;;;;8.90;6.32;;;;;;;10.39;61.80;95866.47;4939468;28;20029;-79
2022/10/09 04:11:13;;;;;;;9.57;6.68;;;;;;;10.32;61.44;95868.13;4988193;28;20030;-79
2022/10/09 04:13:39;;;;;;;19.15;8.05;;;;;;;10.24;61.58;95868.94;4988431;28;20026;-79
2022/10/09 04:16:04;;;;;;;13.25;6.65;;;;;;;10.24;61.60;95868.94;4987696;28;20030;-80
2022/10/09 04:18:30;;;;;;;12.45;6.57;;;;;;;10.21;61.77;95877.31;4971776;28;20157;-80
2022/10/09 04:20:55;;;;;;;12.93;6.32;;;;;;;10.24;61.31;95874.31;4970748;28;20022;-81
2022/10/09 04:23:22;;;;;;;12.75;6.80;;;;;;;10.11;62.09;95874.78;4939153;28;20023;-80
2022/10/09 04:25:54;;;;;;;15.50;7.03;;;;;;;10.13;61.41;95876.31;4938596;28;20424;-79
2022/10/09 04:28:20;;;;;;;15.07;6.78;;;;;;;10.11;61.61;95874.78;4987609;28;20030;-80
2022/10/09 04:30:45;;;;;;;11.35;6.72;;;;;;;10.07;62.10;95878.78;4970629;28;20603;-79
2022/10/09 04:33:11;;;;;;;16.48;7.35;;;;;;;9.99;62.61;95876.94;4953714;28;20085;-80
2022/10/09 04:35:40;;;;;;;18.25;7.13;;;;;;;10.01;62.00;95875.75;4954668;28;20058;-80
2022/10/09 04:38:06;;;;;;;13.00;7.13;;;;;;;10.01;62.41;95888.34;4970140;28;20169;-80
2022/10/09 04:40:31;;;;;;;17.40;7.38;;;;;;;9.99;62.45;95883.16;4988145;28;20067;-79
2022/10/09 04:42:57;;;;;;;15.63;7.63;;;;;;;9.99;62.74;95888.50;4969960;28;20022;-79
2022/10/09 04:45:22;;;;;;;22.20;8.13;;;;;;;10.01;62.44;95894.53;4987809;28;20093;-80
2022/10/09 04:47:47;;;;;;;15.43;6.82;;;;;;;10.01;62.73;95882.97;4970299;28;20026;-81
2022/10/09 04:50:14;;;;;;;16.25;8.00;;;;;;;9.96;62.86;95902.19;4987007;28;20498;-80
2022/10/09 04:52:39;;;;;;;16.42;7.72;;;;;;;9.96;62.96;95894.16;4970808;28;20042;-80
2022/10/09 04:55:05;;;;;;;17.23;7.60;;;;;;;9.88;63.01;95891.47;4954269;28;20560;-81
2022/10/09 04:57:30;;;;;;;13.20;6.10;;;;;;;9.94;63.03;95898.84;4954691;28;20034;-78
2022/10/09 04:59:56;;;;;;;16.83;7.30;;;;;;;9.95;63.01;95900.53;4994040;28;20030;-79
2022/10/09 05:02:21;;;;;;;15.35;7.40;;;;;;;9.87;63.15;95889.78;4973229;28;20034;-78
2022/10/09 05:04:47;;;;;;;13.48;7.30;;;;;;;9.88;63.27;95891.47;4987800;28;20113;-80
2022/10/09 05:07:12;;;;;;;13.80;7.05;;;;;;;9.91;63.33;95895.66;4953088;28;20409;-80
2022/10/09 05:09:38;;;;;;;13.60;7.72;;;;;;;9.94;63.57;95903.38;4988638;28;20054;-80
2022/10/09 05:12:03;;;;;;;12.45;7.20;;;;;;;10.04;64.12;95908.59;4986492;28;20413;-80
2022/10/09 05:14:29;;;;;;;11.52;7.00;;;;;;;10.08;63.72;95899.22;4987604;28;20023;-79
2022/10/09 05:16:56;;;;;;;11.85;7.72;;;;;;;10.16;62.92;95909.97;4953343;28;20027;-80
2022/10/09 05:19:21;;;;;;;11.90;7.60;;;;;;;10.22;62.72;95903.16;4987148;28;20080;-80
2022/10/09 05:21:47;;;;;;;15.02;8.02;;;;;;;10.24;62.67;95904.66;4970038;28;20034;-79
2022/10/09 05:24:12;;;;;;;12.65;7.85;;;;;;;10.29;63.23;95908.66;4986632;28;20034;-80
2022/10/09 05:26:38;;;;;;;13.95;7.43;;;;;;;10.36;63.01;95912.38;4987456;28;20022;-80
2022/10/09 05:29:03;;;;;;;12.70;7.75;;;;;;;10.46;62.77;95915.78;4968956;28;20030;-81
2022/10/09 05:31:29;;;;;;;10.50;7.40;;;;;;;10.54;62.07;95916.81;4952996;28;20038;-81
2022/10/09 05:33:55;;;;;;;9.15;6.50;;;;;;;10.63;61.36;95918.50;4953131;28;20030;-81
2022/10/09 05:36:20;;;;;;;10.63;6.82;;;;;;;10.70;61.65;95921.38;4987413;28;20030;-81
2022/10/09 05:38:46;;;;;;;12.43;7.20;;;;;;;10.83;61.48;95921.69;4969298;28;20037;-81
2022/10/09 05:41:14;;;;;;;11.20;7.53;;;;;;;10.95;61.27;95924.91;4987372;28;20037;-80
2022/10/09 05:43:41;;;;;;;14.38;7.35;;;;;;;11.06;61.46;95917.53;4986916;28;20027;-80
2022/10/09 05:46:10;;;;;;;13.07;7.97;;;;;;;11.23;61.81;95927.25;4953320;28;20037;-81
2022/10/09 05:48:36;;;;;;;11.95;7.65;;;;;;;11.35;61.95;95926.88;4969406;28;20042;-81
2022/10/09 05:51:06;;;;;;;10.93;7.28;;;;;;;11.48;61.72;95929.06;4969347;28;20109;-81
2022/10/09 05:53:31;;;;;;;10.02;7.88;;;;;;;11.59;61.70;95926.00;4987102;28;20257;-80
2022/10/09 05:55:56;;;;;;;10.38;8.20;;;;;;;11.70;61.07;95934.75;4936954;28;20030;-81
2022/10/09 05:58:22;;;;;;;11.00;7.78;;;;;;;11.58;61.37;95939.63;4987076;28;20018;-81
2022/10/09 06:00:47;;;;;;;14.68;7.82;;;;;;;11.69;61.20;95941.94;4953235;28;20026;-80
2022/10/09 06:03:13;;;;;;;15.60;7.95;;;;;;;11.82;61.25;95954.00;4986513;28;20027;-81
2022/10/09 06:05:38;;;;;;;12.95;7.35;;;;;;;11.93;61.11;95950.94;4986694;28;20038;-80
2022/10/09 06:08:04;;;;;;;10.10;7.78;;;;;;;12.09;61.22;95957.34;4968741;28;20018;-80
2022/10/09 06:10:29;;;;;;;11.80;6.90;;;;;;;12.23;61.08;95959.31;4986499;28;20030;-81
2022/10/09 06:12:55;;;;;;;11.85;8.13;;;;;;;12.33;61.12;95960.94;4986010;28;20207;-80
2022/10/09 06:15:20;;;;;;;10.63;7.68;;;;;;;12.54;60.89;95960.31;4969267;28;20088;-80
2022/10/09 06:17:46;;;;;;;14.25;8.23;;;;;;;12.59;60.79;95957.13;4969193;28;20038;-80
2022/10/09 06:20:11;;;;;;;9.00;7.38;;;;;;;12.74;60.91;95962.56;4969510;28;20031;-82
2022/10/09 06:22:36;;;;;;;12.52;7.82;;;;;;;12.44;61.63;95965.09;4986047;28;20352;-79
2022/10/09 06:25:02;;;;;;;11.43;9.00;;;;;;;12.55;61.46;95970.06;4969058;28;20023;-81
2022/10/09 06:27:27;;;;;;;12.60;7.63;;;;;;;12.77;61.18;95967.59;4969109;28;20022;-80
2022/10/09 06:29:54;;;;;;;11.20;7.68;;;;;;;12.95;60.92;95977.22;4968684;28;20104;-80
2022/10/09 06:32:20;;;;;;;11.32;8.38;;;;;;;12.85;61.04;95975.63;4986711;28;20042;-80
2022/10/09 06:34:45;;;;;;;14.10;9.05;;;;;;;13.04;60.89;95981.53;4968248;28;20022;-80
2022/10/09 06:37:11;;;;;;;10.43;8.07;;;;;;;13.23;60.44;95979.41;4989509;28;20121;-81
2022/10/09 06:39:36;;;;;;;10.65;8.05;;;;;;;13.29;60.42;95977.84;4972091;28;20022;-81
2022/10/09 06:42:03;;;;;;;14.25;9.13;;;;;;;13.36;60.25;95976.09;4972773;28;20022;-81
2022/10/09 06:44:28;;;;;;;10.63;8.35;;;;;;;13.35;60.00;95974.41;4972116;28;20031;-81
2022/10/09 06:46:54;;;;;;;12.57;8.07;;;;;;;13.40;60.48;95980.09;4989657;28;20053;-81
2022/10/09 06:49:19;;;;;;;16.33;8.45;;;;;;;13.56;59.98;95978.31;4971937;28;20050;-80
2022/10/09 06:51:44;;;;;;;11.27;8.23;;;;;;;13.61;60.13;95984.00;4971312;28;20050;-81
2022/10/09 06:54:12;;;;;;;15.00;8.15;;;;;;;13.78;59.57;95981.16;4972289;28;20034;-81
2022/10/09 06:56:37;;;;;;;15.45;9.07;;;;;;;13.84;59.42;95980.41;4955487;28;20102;-81
2022/10/09 06:59:03;;;;;;;13.07;9.40;;;;;;;13.74;59.51;95975.28;4990306;28;20022;-80
2022/10/09 07:01:30;;;;;;;11.60;9.27;;;;;;;13.75;59.93;95976.94;4955819;28;20037;-80
2022/10/09 07:04:05;;;;;;;11.75;8.55;;;;;;;13.47;60.43;95978.38;4972313;28;20066;-80
2022/10/09 07:06:33;;;;;;;13.27;8.77;;;;;;;13.76;60.04;95969.69;4972244;28;20022;-82
2022/10/09 07:09:05;;;;;;;10.63;8.43;;;;;;;13.93;59.74;95973.06;4955749;28;20026;-81
2022/10/09 07:11:32;;;;;;;11.15;8.38;;;;;;;13.61;60.76;95977.78;4972134;28;20034;-80
2022/10/09 07:14:00;;;;;;;13.05;8.77;;;;;;;13.79;60.64;95978.28;4955150;28;20037;-81
2022/10/09 07:16:27;;;;;;;13.75;8.98;;;;;;;13.77;60.59;95983.00;4956385;28;20030;-81
2022/10/09 07:18:53;;;;;;;10.98;8.40;;;;;;;14.10;59.82;95976.44;4988906;28;20081;-82
2022/10/09 07:21:18;;;;;;;10.93;7.65;;;;;;;14.26;59.60;95982.66;4971254;28;20031;-81
2022/10/09 07:23:44;;;;;;;12.23;8.65;;;;;;;14.06;59.76;95988.59;4989006;28;20093;-83
2022/10/09 07:26:20;;;;;;;11.77;8.48;;;;;;;14.24;59.41;95979.28;4988917;28;20483;-83
2022/10/09 07:28:46;;;;;;;16.58;9.07;;;;;;;14.09;60.05;95985.53;4956690;28;20060;-81
2022/10/09 07:31:11;;;;;;;12.02;8.88;;;;;;;14.04;59.95;95986.09;4971060;28;20432;-83
2022/10/09 07:33:37;;;;;;;11.98;9.45;;;;;;;14.20;59.92;95990.47;4972057;28;20018;-81
2022/10/09 07:36:03;;;;;;;13.68;8.35;;;;;;;14.20;59.87;95986.94;4954887;28;20042;-81
2022/10/09 07:38:28;;;;;;;14.18;8.82;;;;;;;13.99;60.43;95987.69;4971529;28;20027;-81
2022/10/09 07:40:58;;;;;;;14.02;8.85;;;;;;;14.38;59.56;95988.44;4988532;28;20088;-79
2022/10/09 07:43:23;;;;;;;13.27;9.25;;;;;;;14.29;59.40;95988.53;4955475;28;20052;-82
2022/10/09 07:45:48;;;;;;;18.08;11.20;;;;;;;14.28;59.72;95986.00;4970991;28;20030;-83
2022/10/09 07:48:14;;;;;;;15.65;9.25;;;;;;;14.44;59.65;95988.50;4970024;28;20033;-82
2022/10/09 07:50:39;;;;;;;14.73;8.77;;;;;;;14.61;59.88;95985.59;4988737;28;20120;-81
2022/10/09 07:53:05;;;;;;;15.10;8.52;;;;;;;14.73;59.34;95987.81;4970465;28;20022;-80
2022/10/09 07:55:30;;;;;;;14.00;9.25;;;;;;;15.08;57.64;95993.41;4988807;28;20053;-80
2022/10/09 07:57:55;;;;;;;11.18;8.75;;;;;;;14.97;58.14;95989.38;4954606;28;20029;-80
2022/10/09 08:00:21;;;;;;;13.65;8.45;;;;;;;14.91;58.21;95988.25;4970608;28;20042;-81
2022/10/09 08:02:47;;;;;;;13.13;8.73;;;;;;;15.00;58.19;95983.56;4988449;28;20035;-81
2022/10/09 08:05:13;;;;;;;12.85;9.00;;;;;;;15.08;58.49;95988.00;4987826;28;20023;-81
2022/10/09 08:07:39;;;;;;;15.50;8.65;;;;;;;14.94;58.84;95984.34;4971012;28;20026;-82
2022/10/09 08:10:04;;;;;;;13.23;9.25;;;;;;;14.88;58.94;95975.13;4969926;28;20033;-80
2022/10/09 08:12:30;;;;;;;12.10;8.30;;;;;;;15.16;58.60;95965.44;4988381;28;20025;-81
2022/10/09 08:14:55;;;;;;;16.98;8.82;;;;;;;15.35;57.49;95969.34;4970217;28;20026;-81
2022/10/09 08:17:20;;;;;;;14.18;8.18;;;;;;;15.21;58.32;95965.69;4988248;28;20026;-81
2022/10/09 08:19:46;;;;;;;14.02;9.30;;;;;;;15.08;59.01;95966.41;4988029;28;20084;-81
2022/10/09 08:22:11;;;;;;;12.77;8.98;;;;;;;15.23;58.72;95962.81;4987232;28;20030;-81
2022/10/09 08:24:37;;;;;;;12.15;8.35;;;;;;;15.47;58.24;95972.38;4954347;28;20042;-80
2022/10/09 08:27:03;;;;;;;12.60;8.52;;;;;;;15.53;58.33;95968.91;4954869;28;20417;-81
2022/10/09 08:29:28;;;;;;;16.95;8.48;;;;;;;15.33;58.93;95966.84;4970697;28;20026;-81
2022/10/09 08:31:54;;;;;;;14.57;7.70;;;;;;;15.48;58.53;95963.22;4987369;28;20034;-81
2022/10/09 08:34:19;;;;;;;13.43;7.05;;;;;;;15.54;57.71;95967.84;4970444;28;20427;-81
2022/10/09 08:36:45;;;;;;;9.18;7.35;;;;;;;15.37;58.79;95970.00;4987743;28;20019;-82
2022/10/09 08:39:10;;;;;;;10.73;7.00;;;;;;;15.51;58.58;95970.13;4969939;28;20026;-81
2022/10/09 08:41:50;;;;;;;9.88;6.35;;;;;;;15.44;58.55;95961.97;4987576;28;20046;-82
2022/10/09 08:44:21;;;;;;;9.00;6.20;;;;;;;15.54;58.24;95967.84;4953395;28;20018;-80
2022/10/09 08:46:49;;;;;;;8.55;5.80;;;;;;;15.69;57.94;95965.06;4954804;28;20042;-81
2022/10/09 08:49:53;;;;;;;8.32;5.65;;;;;;;15.88;57.30;95957.28;4987726;28;20068;-81
2022/10/09 08:52:40;;;;;;;8.68;5.32;;;;;;;15.86;57.33;95947.72;4971802;28;20054;-81
2022/10/09 08:55:27;;;;;;;10.57;5.35;;;;;;;16.11;56.80;95949.97;4987333;28;20030;-81
2022/10/09 08:57:56;;;;;;;9.85;5.38;;;;;;;15.90;57.19;95943.56;4969143;28;20080;-81
2022/10/09 09:00:43;;;;;;;6.57;4.95;;;;;;;16.26;56.49;95936.31;4953968;28;20026;-81
2022/10/09 09:03:30;;;;;;;6.47;5.38;;;;;;;16.31;56.80;95941.97;4953482;28;20049;-81
2022/10/09 09:06:20;;;;;;;10.25;5.28;;;;;;;16.36;56.76;95931.38;4969170;28;20030;-81
2022/10/09 09:09:17;;;;;;;6.75;4.53;;;;;;;16.58;55.37;95933.09;4970003;28;20027;-81
2022/10/09 09:11:53;;;;;;;9.55;4.45;;;;;;;16.85;55.46;95920.47;4987033;28;20176;-82
2022/10/09 09:14:52;;;;;;;7.22;4.32;;;;;;;17.23;56.06;95929.13;4968845;28;20101;-81
2022/10/09 09:17:40;;;;;;;8.00;4.32;;;;;;;17.47;53.73;95924.13;4987230;28;20022;-81
2022/10/09 09:20:20;;;;;;;8.32;4.20;;;;;;;17.75;53.91;95925.78;4956201;28;20062;-81
2022/10/09 09:22:48;;;;;;;7.80;4.55;;;;;;;17.92;52.52;95921.59;4969150;28;20113;-81
2022/10/09 09:25:24;;;;;;;6.82;4.50;;;;;;;17.61;51.91;95920.38;4953292;28;20527;-81
2022/10/09 09:27:51;;;;;;;8.05;4.70;;;;;;;17.85;52.78;95919.91;4953021;28;20026;-81
2022/10/09 09:30:19;;;;;;;8.15;4.47;;;;;;;17.76;52.28;95920.16;4969229;28;20026;-81
2022/10/09 09:32:53;;;;;;;7.15;4.22;;;;;;;17.89;51.26;95919.28;4986465;28;20058;-81
2022/10/09 09:36:05;;;;;;;8.02;4.60;;;;;;;17.61;51.98;95920.38;4952952;28;20019;-81
2022/10/09 09:38:31;;;;;;;7.35;3.58;;;;;;;17.58;51.65;95917.22;4971562;28;20417;-81
2022/10/09 09:40:56;;;;;;;8.02;4.30;;;;;;;17.60;52.34;95923.28;4968642;28;20022;-82
2022/10/09 09:43:23;;;;;;;9.13;4.35;;;;;;;17.56;52.88;95925.59;4969288;28;20022;-82
2022/10/09 09:45:56;;;;;;;6.97;4.22;;;;;;;17.44;52.72;95924.53;4953021;28;20428;-82
2022/10/09 09:48:35;;;;;;;7.50;4.88;;;;;;;17.74;52.34;95918.69;4952693;28;20050;-81
2022/10/09 09:51:00;;;;;;;8.70;4.20;;;;;;;17.91;52.05;95924.50;4969159;28;20514;-82
2022/10/09 09:53:34;;;;;;;8.18;4.15;;;;;;;18.01;50.97;95926.75;4936458;28;20106;-82
2022/10/09 09:56:00;;;;;;;5.38;4.10;;;;;;;18.18;50.87;95920.91;4953431;28;20022;-82
2022/10/09 09:58:34;;;;;;;7.10;4.22;;;;;;;18.22;51.32;95922.16;4936350;28;20412;-82
2022/10/09 10:01:00;;;;;;;10.68;4.38;;;;;;;18.23;51.34;95924.66;4953470;28;20060;-82
2022/10/09 10:03:26;;;;;;;6.03;4.10;;;;;;;18.02;51.02;95921.13;4953163;28;20030;-82
2022/10/09 10:05:51;;;;;;;6.75;4.72;;;;;;;18.24;51.62;95928.22;4968751;28;20029;-81
2022/10/09 10:08:21;;;;;;;10.30;4.32;;;;;;;18.18;51.14;95916.34;4953172;28;20034;-82
2022/10/09 10:10:47;;;;;;;10.23;4.38;;;;;;;18.25;50.24;95919.84;4986267;28;20169;-82
2022/10/09 10:13:45;;;;;;;13.60;4.57;;;;;;;18.33;50.63;95916.06;4990520;28;20589;-81
2022/10/09 10:16:24;;;;;;;11.07;4.03;;;;;;;18.41;48.29;95925.84;4971645;28;20038;-81
2022/10/09 10:18:49;;;;;;;7.47;3.72;;;;;;;18.19;49.37;95922.56;4956918;28;20030;-80
2022/10/09 10:21:16;;;;;;;10.27;4.00;;;;;;;18.08;49.55;95918.63;4956755;28;20034;-83
2022/10/09 10:24:04;;;;;;;5.22;3.50;;;;;;;18.12;49.07;95914.47;4956078;28;20040;-83
2022/10/09 10:26:49;;;;;;;4.90;3.35;;;;;;;18.32;47.94;95924.41;4973029;28;20101;-82
2022/10/09 10:29:30;;;;;;;7.78;3.58;;;;;;;18.31;48.41;95918.19;4990147;28;20539;-84
2022/10/09 10:32:01;;;;;;;8.27;3.90;;;;;;;18.81;48.62;95911.25;4972093;28;20477;-81
2022/10/09 10:34:29;;;;;;;6.70;4.38;;;;;;;19.09;47.43;95917.34;4956871;28;20039;-81
2022/10/09 10:37:13;;;;;;;10.68;5.28;;;;;;;18.77;48.03;95900.00;4955938;28;20027;-82
2022/10/09 10:39:49;;;;;;;6.25;3.72;;;;;;;18.58;47.93;95885.47;4990153;28;20525;-81
2022/10/09 10:42:20;;;;;;;6.88;4.03;;;;;;;18.90;48.85;95898.25;4957166;28;20030;-83
2022/10/09 10:44:49;;;;;;;6.22;3.78;;;;;;;18.92;47.52;95895.31;4956345;28;20421;-80
2022/10/09 10:47:17;;;;;;;5.72;4.45;;;;;;;18.97;47.36;95881.91;4972498;28;20545;-81
2022/10/09 10:49:43;;;;;;;5.22;4.00;;;;;;;19.22;47.23;95884.66;4955527;28;20054;-81
2022/10/09 10:52:43;;;;;;;5.47;3.60;;;;;;;19.38;45.79;95879.72;4972330;28;20387;-82
2022/10/09 10:55:20;;;;;;;5.60;2.97;;;;;;;19.46;44.71;95873.19;4951850;28;20133;-83
2022/10/09 10:57:52;;;;;;;6.85;3.75;;;;;;;19.60;45.66;95884.78;4971858;28;20036;-82
2022/10/09 11:00:17;;;;;;;6.35;3.47;;;;;;;19.92;46.02;95875.66;4989722;28;20038;-83
2022/10/09 11:03:20;;;;;;;9.82;4.95;;;;;;;19.85;45.27;95871.13;4955334;28;20045;-82
2022/10/09 11:05:57;;;;;;;4.72;3.47;;;;;;;19.85;44.04;95865.69;4989664;28;20026;-84
2022/10/09 11:08:47;;;;;;;7.32;3.97;;;;;;;20.01;44.63;95858.81;4972040;28;20034;-82
2022/10/09 11:11:23;;;;;;;7.32;3.95;;;;;;;20.33;43.83;95860.56;4971762;28;20161;-82
2022/10/09 11:14:01;;;;;;;12.60;4.05;;;;;;;20.44;41.85;95856.22;4972221;28;20057;-85
2022/10/09 11:16:42;;;;;;;7.65;3.20;;;;;;;20.53;40.83;95847.75;4989180;28;20054;-83
2022/10/09 11:20:01;;;;;;;5.18;3.72;;;;;;;20.87;42.66;95846.22;4972338;28;20041;-83
2022/10/09 11:22:40;;;;;;;6.45;3.47;;;;;;;20.85;41.43;95845.63;4932837;28;20046;-82
2022/10/09 11:25:25;;;;;;;5.80;3.42;;;;;;;21.02;42.07;95845.00;4971781;28;20122;-81
2022/10/09 11:28:13;;;;;;;6.50;3.08;;;;;;;20.91;42.13;95835.66;4973917;28;20050;-83
2022/10/09 11:30:52;;;;;;;5.82;3.78;;;;;;;21.11;41.73;95832.69;4971563;28;20036;-82
2022/10/09 11:33:28;;;;;;;7.40;3.38;;;;;;;21.24;42.17;95830.78;4956624;28;20045;-82
2022/10/09 11:36:14;;;;;;;8.02;3.67;;;;;;;21.44;41.18;95832.34;4972638;28;20565;-83
2022/10/09 11:38:59;;;;;;;7.40;3.15;;;;;;;21.56;41.08;95825.00;4974291;28;20026;-82
2022/10/09 11:41:25;;;;;;;6.28;4.00;;;;;;;21.58;40.74;95831.06;4956832;28;20030;-83